Time;durP1;ratioP1;P1;durP2;ratioP2;P2;SDS_P1;SDS_P2;PMS_P1;PMS_P2;Temp;Humidity;BMP_temperature;BMP_pressure;BME280_temperature;BME280_humidity;BME280_pressure;Samples;Min_cycle;Max_cycle;Signal;HPM_P1;HPM_P2
2022/10/30 00:00:29;;;;;;;5.25;0.95;;;17.40;93.00;;;;;;5078189;28;20024;-77
2022/10/30 00:02:54;;;;;;;3.75;0.90;;;17.50;93.00;;;;;;5078730;28;20031;-77
2022/10/30 00:05:20;;;;;;;5.22;1.10;;;17.50;93.10;;;;;;5079368;28;20017;-77
2022/10/30 00:07:49;;;;;;;5.13;0.70;;;17.50;93.10;;;;;;5079178;28;20092;-77
2022/10/30 00:10:16;;;;;;;1.85;0.75;;;17.50;93.00;;;;;;5079310;28;20023;-77
2022/10/30 00:12:42;;;;;;;4.63;0.80;;;17.50;93.10;;;;;;5079078;28;20027;-75
2022/10/30 00:15:08;;;;;;;4.85;0.80;;;17.50;93.10;;;;;;5089373;28;20073;-77
2022/10/30 00:17:34;;;;;;;4.00;1.25;;;17.40;93.10;;;;;;5078457;28;20040;-77
2022/10/30 00:20:00;;;;;;;2.72;0.93;;;17.40;93.10;;;;;;5075109;28;20031;-77
2022/10/30 00:22:29;;;;;;;3.65;0.90;;;17.40;93.20;;;;;;5078917;28;20473;-77
2022/10/30 00:24:54;;;;;;;5.03;1.00;;;17.40;93.20;;;;;;5079003;28;20385;-77
2022/10/30 00:27:20;;;;;;;3.65;1.08;;;17.40;93.20;;;;;;5078768;28;20035;-77
2022/10/30 00:29:46;;;;;;;4.13;1.05;;;17.40;93.20;;;;;;5077569;28;20055;-77
2022/10/30 00:32:11;;;;;;;4.70;0.90;;;17.40;93.20;;;;;;5077727;28;20071;-77
2022/10/30 00:34:37;;;;;;;6.50;1.50;;;17.40;93.20;;;;;;5077639;28;20063;-77
2022/10/30 00:37:03;;;;;;;4.82;1.27;;;17.40;93.30;;;;;;5078517;28;20112;-77
2022/10/30 00:39:28;;;;;;;4.85;1.08;;;17.40;93.30;;;;;;5078542;28;20024;-77
2022/10/30 00:41:54;;;;;;;3.30;1.10;;;17.40;93.80;;;;;;5077151;28;20016;-77
2022/10/30 00:44:53;;;;;;;3.33;0.93;;;17.30;93.30;;;;;;5078578;28;20045;-77
2022/10/30 00:47:25;;;;;;;4.18;1.08;;;17.30;93.20;;;;;;5078636;28;20040;-77
2022/10/30 00:49:57;;;;;;;5.05;1.13;;;17.30;93.40;;;;;;5078339;28;20020;-77
2022/10/30 00:52:26;;;;;;;4.78;1.05;;;17.30;93.50;;;;;;5077281;28;20024;-77
2022/10/30 00:54:54;;;;;;;3.75;1.17;;;17.30;93.50;;;;;;5077120;28;20028;-77
2022/10/30 00:57:20;;;;;;;3.65;0.95;;;17.30;93.50;;;;;;5077534;28;20042;-77
2022/10/30 00:59:47;;;;;;;3.17;1.00;;;17.30;93.50;;;;;;5078306;28;20050;-77
2022/10/30 01:02:13;;;;;;;3.10;1.08;;;17.30;93.60;;;;;;5077101;28;20025;-77
2022/10/30 01:04:40;;;;;;;7.00;1.05;;;17.30;93.70;;;;;;5077866;28;20061;-77
2022/10/30 01:07:15;;;;;;;4.70;1.13;;;17.20;93.60;;;;;;5078058;28;20032;-77
2022/10/30 01:09:41;;;;;;;5.13;1.20;;;17.30;93.70;;;;;;5077967;28;20056;-77
2022/10/30 01:12:07;;;;;;;2.92;0.80;;;17.20;93.70;;;;;;5076607;28;20024;-77
2022/10/30 01:14:39;;;;;;;3.58;1.02;;;17.30;94.30;;;;;;5082748;28;20024;-77
2022/10/30 01:17:16;;;;;;;3.40;0.90;;;17.30;93.80;;;;;;5084208;28;20068;-77
2022/10/30 01:20:00;;;;;;;5.30;0.90;;;17.20;93.70;;;;;;5079491;28;20090;-77
2022/10/30 01:22:42;;;;;;;5.20;0.90;;;17.20;93.90;;;;;;5077824;28;20024;-77
2022/10/30 01:25:11;;;;;;;5.25;1.00;;;17.20;93.70;;;;;;5076546;28;20021;-77
2022/10/30 01:27:58;;;;;;;7.13;1.13;;;17.20;93.90;;;;;;5077740;28;20028;-77
2022/10/30 01:30:42;;;;;;;5.57;1.15;;;17.20;93.90;;;;;;5076204;28;20173;-75
2022/10/30 01:33:23;;;;;;;3.03;0.95;;;17.20;93.90;;;;;;5076355;28;20060;-76
2022/10/30 01:36:07;;;;;;;6.70;1.10;;;17.20;93.90;;;;;;5076092;28;20053;-77
2022/10/30 01:38:45;;;;;;;4.95;0.93;;;17.20;93.90;;;;;;5076069;28;20020;-77
2022/10/30 01:41:11;;;;;;;3.40;0.90;;;17.20;93.90;;;;;;5076145;28;20020;-77
2022/10/30 01:43:37;;;;;;;5.20;1.05;;;17.20;94.10;;;;;;5075924;28;20036;-77
2022/10/30 01:46:05;;;;;;;2.90;0.85;;;17.20;94.10;;;;;;5077498;28;20513;-77
2022/10/30 01:48:59;;;;;;;3.20;0.88;;;17.20;94.20;;;;;;5076129;28;20059;-77
2022/10/30 01:51:57;;;;;;;6.40;0.90;;;17.20;94.00;;;;;;5076228;28;20028;-77
2022/10/30 01:54:41;;;;;;;4.18;1.00;;;17.20;93.90;;;;;;5077371;28;20036;-77
2022/10/30 01:57:34;;;;;;;2.03;0.88;;;17.20;94.20;;;;;;5075136;28;20028;-77
2022/10/30 02:00:12;;;;;;;4.53;1.00;;;17.20;94.10;;;;;;5075972;28;20029;-77
2022/10/30 02:02:38;;;;;;;5.15;1.00;;;17.20;94.10;;;;;;5077230;28;20477;-77
2022/10/30 02:05:07;;;;;;;5.65;0.95;;;17.20;94.50;;;;;;5076159;28;20028;-77
2022/10/30 02:07:34;;;;;;;3.38;0.98;;;17.20;94.20;;;;;;5076042;28;20058;-77
2022/10/30 02:10:00;;;;;;;3.65;0.90;;;17.20;94.80;;;;;;5077259;28;20055;-77
2022/10/30 02:12:26;;;;;;;4.72;0.82;;;17.20;94.30;;;;;;5077202;28;20060;-77
2022/10/30 02:14:56;;;;;;;4.63;1.58;;;17.20;94.50;;;;;;5085086;28;20020;-77
2022/10/30 02:17:22;;;;;;;5.25;1.20;;;17.20;94.30;;;;;;5080202;28;20041;-77
2022/10/30 02:19:48;;;;;;;3.45;1.10;;;17.20;94.50;;;;;;5079096;28;20052;-77
2022/10/30 02:22:14;;;;;;;5.57;1.70;;;17.20;94.50;;;;;;5076994;28;20028;-77
2022/10/30 02:24:39;;;;;;;4.95;1.20;;;17.10;94.40;;;;;;5075995;28;20078;-75
2022/10/30 02:27:05;;;;;;;4.57;0.90;;;17.10;94.70;;;;;;5080831;28;20523;-77
2022/10/30 02:29:30;;;;;;;4.00;1.08;;;17.20;94.70;;;;;;5079805;28;20400;-77
2022/10/30 02:31:56;;;;;;;4.13;0.80;;;17.10;94.80;;;;;;5081085;28;20484;-77
2022/10/30 02:34:22;;;;;;;6.30;1.40;;;17.10;94.80;;;;;;5080751;28;20029;-77
2022/10/30 02:36:48;;;;;;;5.00;0.98;;;17.10;94.80;;;;;;5079880;28;20024;-77
2022/10/30 02:39:14;;;;;;;4.50;1.10;;;17.10;94.90;;;;;;5079547;28;20589;-77
2022/10/30 02:41:39;;;;;;;6.05;1.15;;;17.10;95.00;;;;;;5078941;28;20044;-77
2022/10/30 02:44:05;;;;;;;2.92;1.02;;;17.10;95.00;;;;;;5080823;28;20028;-77
2022/10/30 02:46:31;;;;;;;7.65;1.20;;;17.10;95.00;;;;;;5080713;28;20020;-77
2022/10/30 02:48:57;;;;;;;4.70;1.33;;;17.10;95.20;;;;;;5080629;28;20090;-76
2022/10/30 02:51:23;;;;;;;4.25;1.10;;;17.10;95.20;;;;;;5080822;28;20020;-77
2022/10/30 02:53:48;;;;;;;9.85;1.30;;;17.10;95.10;;;;;;5080619;28;20028;-77
2022/10/30 02:56:14;;;;;;;5.95;1.10;;;17.10;95.20;;;;;;5080066;28;20035;-77
2022/10/30 02:58:41;;;;;;;4.43;1.13;;;17.10;95.20;;;;;;5080640;28;20025;-77
2022/10/30 03:01:08;;;;;;;5.80;1.20;;;17.10;95.20;;;;;;5078955;28;20123;-78
2022/10/30 03:03:34;;;;;;;3.05;1.30;;;17.10;95.30;;;;;;5079145;28;20020;-77
2022/10/30 03:06:01;;;;;;;4.45;1.20;;;17.10;95.30;;;;;;5079407;28;20037;-77
2022/10/30 03:08:26;;;;;;;4.25;1.00;;;17.00;95.30;;;;;;5080493;28;20071;-77
2022/10/30 03:10:58;;;;;;;2.95;0.93;;;17.10;95.40;;;;;;5078985;28;20024;-77
2022/10/30 03:13:24;;;;;;;2.58;0.93;;;17.10;95.30;;;;;;5080320;28;20020;-77
2022/10/30 03:15:49;;;;;;;3.85;1.00;;;17.00;95.40;;;;;;5092122;28;20035;-77
2022/10/30 03:18:15;;;;;;;3.80;1.17;;;17.00;95.30;;;;;;5079538;28;20021;-77
2022/10/30 03:20:41;;;;;;;4.30;1.15;;;17.00;95.40;;;;;;5082921;28;20017;-77
2022/10/30 03:23:06;;;;;;;2.90;0.90;;;16.90;95.30;;;;;;5080203;28;20052;-77
2022/10/30 03:25:32;;;;;;;4.65;0.88;;;16.90;95.50;;;;;;5080109;28;20043;-75
2022/10/30 03:27:57;;;;;;;3.67;0.80;;;16.90;95.60;;;;;;5078712;28;20039;-77
2022/10/30 03:30:23;;;;;;;3.60;1.08;;;16.80;95.60;;;;;;5073571;28;20016;-77
2022/10/30 03:32:49;;;;;;;5.15;1.05;;;16.80;95.60;;;;;;5079823;28;20033;-77
2022/10/30 03:35:14;;;;;;;6.90;1.10;;;16.80;95.90;;;;;;5078797;28;20392;-77
2022/10/30 03:37:40;;;;;;;4.97;1.20;;;16.70;95.70;;;;;;5078969;28;20025;-77
2022/10/30 03:40:06;;;;;;;3.45;0.93;;;16.60;96.00;;;;;;5078687;28;20032;-77
2022/10/30 03:42:32;;;;;;;3.95;0.80;;;16.40;96.10;;;;;;5078020;28;20031;-78
2022/10/30 03:44:57;;;;;;;4.68;0.90;;;16.30;96.30;;;;;;5079534;28;20111;-75
2022/10/30 03:47:23;;;;;;;3.13;0.73;;;16.10;96.50;;;;;;5078469;28;20024;-75
2022/10/30 03:49:48;;;;;;;6.40;0.93;;;15.90;96.80;;;;;;5078283;28;20028;-75
2022/10/30 03:52:14;;;;;;;3.47;0.70;;;15.60;97.20;;;;;;5078364;28;20024;-77
2022/10/30 03:54:40;;;;;;;3.25;0.77;;;15.40;97.40;;;;;;5078462;28;20497;-74
2022/10/30 03:57:05;;;;;;;4.32;0.50;;;15.20;98.10;;;;;;5078369;28;20037;-77
2022/10/30 03:59:31;;;;;;;2.90;0.70;;;15.00;98.60;;;;;;5079489;28;20508;-77
2022/10/30 04:01:56;;;;;;;4.40;0.63;;;14.80;99.30;;;;;;5079618;28;20021;-77
2022/10/30 04:04:22;;;;;;;4.55;0.68;;;14.60;99.30;;;;;;5079039;28;20017;-74
2022/10/30 04:06:48;;;;;;;5.32;0.80;;;14.50;99.90;;;;;;5079304;28;20060;-77
2022/10/30 04:09:13;;;;;;;6.55;0.70;;;14.50;99.90;;;;;;5079119;28;20104;-74
2022/10/30 04:11:39;;;;;;;2.97;1.00;;;14.50;99.70;;;;;;5079289;28;20112;-75
2022/10/30 04:14:05;;;;;;;1.92;0.70;;;14.60;99.90;;;;;;5080554;28;20031;-75
2022/10/30 04:16:30;;;;;;;2.67;0.80;;;14.50;99.50;;;;;;5089569;28;20053;-77
2022/10/30 04:18:56;;;;;;;3.88;0.80;;;14.40;99.20;;;;;;5081123;28;20025;-77
2022/10/30 04:21:21;;;;;;;2.95;0.70;;;14.40;99.40;;;;;;5079195;28;20382;-75
2022/10/30 04:23:48;;;;;;;2.63;0.50;;;14.40;99.90;;;;;;5079113;28;20036;-74
2022/10/30 04:26:14;;;;;;;3.92;0.77;;;14.30;99.90;;;;;;5077972;28;20119;-74
2022/10/30 04:28:39;;;;;;;1.25;0.47;;;14.10;99.90;;;;;;5078676;28;20048;-75
2022/10/30 04:31:05;;;;;;;3.85;0.52;;;14.00;99.90;;;;;;5071821;28;20033;-75
2022/10/30 04:33:30;;;;;;;4.55;0.60;;;13.90;99.90;;;;;;5078443;28;20080;-75
2022/10/30 04:35:56;;;;;;;2.85;0.57;;;13.90;99.90;;;;;;5077412;28;20060;-75
2022/10/30 04:38:22;;;;;;;5.35;0.60;;;13.80;99.90;;;;;;5077146;28;20107;-77
2022/10/30 04:40:47;;;;;;;4.97;0.60;;;13.90;99.90;;;;;;5078847;28;20025;-75
2022/10/30 04:43:13;;;;;;;2.53;0.50;;;13.90;99.90;;;;;;5077150;28;20095;-75
2022/10/30 04:45:40;;;;;;;2.83;0.55;;;14.10;99.90;;;;;;5077064;28;20025;-78
2022/10/30 04:48:14;;;;;;;3.10;0.57;;;14.20;99.90;;;;;;5077827;28;20557;-77
2022/10/30 04:50:40;;;;;;;1.88;0.40;;;14.20;99.90;;;;;;5077925;28;20400;-78
2022/10/30 04:53:11;;;;;;;2.63;0.50;;;14.30;99.90;;;;;;5078323;28;20142;-77
2022/10/30 04:55:37;;;;;;;3.05;0.40;;;14.40;99.90;;;;;;5077269;28;20523;-77
2022/10/30 04:58:03;;;;;;;2.28;0.50;;;14.40;99.90;;;;;;5077451;28;20012;-77
2022/10/30 05:00:30;;;;;;;2.60;0.55;;;14.50;99.90;;;;;;5078178;28;20024;-77
2022/10/30 05:02:59;;;;;;;1.48;0.40;;;14.60;99.90;;;;;;5077901;28;20480;-77
2022/10/30 05:05:25;;;;;;;3.75;0.50;;;14.60;99.90;;;;;;5076935;28;20115;-74
2022/10/30 05:07:51;;;;;;;1.80;0.50;;;14.60;99.90;;;;;;5076609;28;20055;-77
2022/10/30 05:10:17;;;;;;;1.42;0.55;;;14.60;99.90;;;;;;5078181;28;20058;-77
2022/10/30 05:12:43;;;;;;;2.28;0.40;;;14.50;99.90;;;;;;5077936;28;20032;-77
2022/10/30 05:15:10;;;;;;;2.67;0.50;;;14.50;99.90;;;;;;5087327;28;20094;-77
2022/10/30 05:17:36;;;;;;;2.08;0.50;;;14.40;99.90;;;;;;5078987;28;20123;-75
2022/10/30 05:20:01;;;;;;;1.92;0.32;;;14.40;99.90;;;;;;5074917;28;20078;-75
2022/10/30 05:22:27;;;;;;;1.40;0.50;;;14.40;99.90;;;;;;5077707;28;20063;-74
2022/10/30 05:24:53;;;;;;;3.20;0.50;;;14.40;99.90;;;;;;5077824;28;20025;-75
2022/10/30 05:27:18;;;;;;;2.97;0.60;;;14.40;99.90;;;;;;5077676;28;20143;-75
2022/10/30 05:29:44;;;;;;;3.42;0.50;;;14.50;99.90;;;;;;5072593;28;20056;-75
2022/10/30 05:32:09;;;;;;;2.58;0.50;;;14.60;99.90;;;;;;5074552;28;20111;-75
2022/10/30 05:34:35;;;;;;;2.00;0.40;;;14.70;99.90;;;;;;5077436;28;20104;-75
2022/10/30 05:37:01;;;;;;;3.10;0.60;;;14.60;99.90;;;;;;5077370;28;20029;-75
2022/10/30 05:39:27;;;;;;;2.50;0.60;;;14.50;99.90;;;;;;5076202;28;20032;-74
2022/10/30 05:41:52;;;;;;;0.98;0.50;;;14.40;99.90;;;;;;5075917;28;20019;-75
2022/10/30 05:44:18;;;;;;;1.67;0.40;;;14.40;99.90;;;;;;5077539;28;20028;-75
2022/10/30 05:46:44;;;;;;;2.47;0.50;;;14.40;99.90;;;;;;5077311;28;20104;-75
2022/10/30 05:49:09;;;;;;;2.20;0.60;;;14.40;99.90;;;;;;5077307;28;20032;-75
2022/10/30 05:51:35;;;;;;;2.20;0.50;;;14.40;99.90;;;;;;5077288;28;20078;-75
2022/10/30 05:54:01;;;;;;;1.45;0.40;;;14.40;99.90;;;;;;5077535;28;20031;-75
2022/10/30 05:56:26;;;;;;;3.58;0.55;;;14.40;99.90;;;;;;5076738;28;20481;-75
2022/10/30 05:58:52;;;;;;;2.08;0.40;;;14.40;99.90;;;;;;5076063;28;20032;-75
2022/10/30 06:01:17;;;;;;;1.73;0.30;;;14.40;99.90;;;;;;5075357;28;20017;-75
2022/10/30 06:03:43;;;;;;;2.88;0.40;;;14.50;99.90;;;;;;5075824;28;20025;-74
2022/10/30 06:06:09;;;;;;;2.58;0.40;;;14.50;99.90;;;;;;5075872;28;20036;-75
2022/10/30 06:08:35;;;;;;;2.28;0.47;;;14.50;99.90;;;;;;5077360;28;20035;-74
2022/10/30 06:11:00;;;;;;;0.68;0.30;;;14.50;99.90;;;;;;5077048;28;20473;-74
2022/10/30 06:13:26;;;;;;;1.83;0.40;;;14.40;99.90;;;;;;5077341;28;20028;-75
2022/10/30 06:15:55;;;;;;;1.95;0.30;;;14.40;99.90;;;;;;5089060;28;20027;-75
2022/10/30 06:18:21;;;;;;;2.25;0.40;;;14.30;99.90;;;;;;5070391;28;20078;-74
2022/10/30 06:20:46;;;;;;;0.63;0.20;;;14.30;99.90;;;;;;5077437;28;20021;-75
2022/10/30 06:23:12;;;;;;;1.58;0.45;;;14.30;99.90;;;;;;5077040;28;20366;-75
2022/10/30 06:25:38;;;;;;;3.03;0.40;;;14.30;99.90;;;;;;5077117;28;20118;-74
2022/10/30 06:28:04;;;;;;;2.83;0.32;;;14.30;99.90;;;;;;5075820;28;20035;-74
2022/10/30 06:30:30;;;;;;;2.53;0.30;;;14.40;99.90;;;;;;5076762;28;20401;-74
2022/10/30 06:33:05;;;;;;;2.97;0.40;;;14.40;99.90;;;;;;5075683;28;20088;-75
2022/10/30 06:35:31;;;;;;;2.28;0.50;;;14.40;99.90;;;;;;5076931;28;20515;-75
2022/10/30 06:37:59;;;;;;;2.85;0.40;;;14.40;99.90;;;;;;5075860;28;20033;-75
2022/10/30 06:40:24;;;;;;;3.03;0.50;;;14.30;99.90;;;;;;5076844;28;20050;-77
2022/10/30 06:42:52;;;;;;;2.00;0.30;;;14.40;99.90;;;;;;5074699;28;20683;-75
2022/10/30 06:45:20;;;;;;;1.58;0.40;;;14.30;99.90;;;;;;5075385;28;20020;-74
2022/10/30 06:47:46;;;;;;;2.45;0.52;;;14.30;99.90;;;;;;5076737;28;20025;-74
2022/10/30 06:50:15;;;;;;;2.92;0.50;;;14.20;99.90;;;;;;5076952;28;20020;-74
2022/10/30 06:52:40;;;;;;;1.95;0.40;;;14.20;99.90;;;;;;5077022;28;20088;-75
2022/10/30 06:55:07;;;;;;;0.95;0.50;;;14.10;99.90;;;;;;5076815;28;20457;-74
2022/10/30 06:57:33;;;;;;;1.58;0.55;;;14.10;99.90;;;;;;5075726;28;20086;-74
2022/10/30 06:59:58;;;;;;;1.70;0.40;;;14.10;99.90;;;;;;5075466;28;20021;-77
2022/10/30 07:02:25;;;;;;;0.60;0.30;;;14.10;99.90;;;;;;5076768;28;20032;-77
2022/10/30 07:04:50;;;;;;;2.35;0.45;;;14.20;99.90;;;;;;5076605;28;20032;-74
2022/10/30 07:07:16;;;;;;;3.35;0.60;;;14.20;99.90;;;;;;5076758;28;20060;-77
2022/10/30 07:09:42;;;;;;;1.67;0.40;;;14.10;99.90;;;;;;5076805;28;20513;-77
2022/10/30 07:12:08;;;;;;;2.90;0.35;;;14.20;99.90;;;;;;5077160;28;20098;-76
2022/10/30 07:14:34;;;;;;;1.67;0.43;;;14.30;99.90;;;;;;5084569;28;20024;-75
2022/10/30 07:17:01;;;;;;;2.20;0.40;;;14.30;99.90;;;;;;5085791;28;20408;-75
2022/10/30 07:19:27;;;;;;;0.63;0.28;;;14.30;99.90;;;;;;5074983;28;21240;-75
2022/10/30 07:21:52;;;;;;;2.47;0.30;;;14.30;99.90;;;;;;5080260;28;20031;-74
2022/10/30 07:24:18;;;;;;;1.35;0.30;;;14.40;99.90;;;;;;5078959;28;20436;-74
2022/10/30 07:26:43;;;;;;;1.58;0.40;;;14.40;99.90;;;;;;5080131;28;20024;-77
2022/10/30 07:29:09;;;;;;;1.75;0.32;;;14.30;99.90;;;;;;5080038;28;20396;-77
2022/10/30 07:31:35;;;;;;;1.88;0.40;;;14.30;99.90;;;;;;5080053;28;20028;-77
2022/10/30 07:34:00;;;;;;;1.20;0.30;;;14.20;99.90;;;;;;5079785;28;20025;-77
2022/10/30 07:36:26;;;;;;;2.58;0.60;;;14.20;99.90;;;;;;5079842;28;20496;-77
2022/10/30 07:38:52;;;;;;;2.25;0.40;;;14.20;99.90;;;;;;5078762;28;20074;-77
2022/10/30 07:41:18;;;;;;;0.80;0.38;;;14.20;99.90;;;;;;5079093;28;20024;-77
2022/10/30 07:43:44;;;;;;;0.85;0.40;;;14.20;99.90;;;;;;5079628;28;20023;-77
2022/10/30 07:46:10;;;;;;;1.02;0.30;;;14.20;99.90;;;;;;5079867;28;20024;-77
2022/10/30 07:48:36;;;;;;;2.28;0.38;;;14.20;99.90;;;;;;5079550;28;20385;-77
2022/10/30 07:51:02;;;;;;;3.38;0.45;;;14.30;99.90;;;;;;5079584;28;20025;-74
2022/10/30 07:53:28;;;;;;;1.05;0.30;;;14.20;99.90;;;;;;5078597;28;20029;-74
2022/10/30 07:55:54;;;;;;;1.67;0.43;;;14.30;99.90;;;;;;5077790;28;20029;-77
2022/10/30 07:58:20;;;;;;;1.95;0.30;;;14.30;99.90;;;;;;5079747;28;20114;-74
2022/10/30 08:00:46;;;;;;;2.72;0.50;;;14.20;99.90;;;;;;5079027;28;20039;-74
2022/10/30 08:03:12;;;;;;;2.13;0.70;;;14.20;99.90;;;;;;5079284;28;20066;-74
2022/10/30 08:05:38;;;;;;;1.52;0.40;;;14.20;99.90;;;;;;5079283;28;20056;-77
2022/10/30 08:08:04;;;;;;;1.67;0.40;;;14.20;99.90;;;;;;5079394;28;20021;-77
2022/10/30 08:10:29;;;;;;;1.73;0.35;;;14.30;99.90;;;;;;5079317;28;20071;-77
2022/10/30 08:12:55;;;;;;;1.80;0.40;;;14.30;99.90;;;;;;5079325;28;20017;-77
2022/10/30 08:15:22;;;;;;;1.98;0.50;;;14.40;99.90;;;;;;5091002;28;20016;-77
2022/10/30 08:17:49;;;;;;;1.70;0.40;;;14.40;99.90;;;;;;5077060;28;20060;-77
2022/10/30 08:20:17;;;;;;;1.17;0.28;;;14.30;99.90;;;;;;5075201;28;20035;-77
2022/10/30 08:22:53;;;;;;;3.22;0.40;;;14.30;99.90;;;;;;5078936;28;20020;-77
2022/10/30 08:25:22;;;;;;;0.43;0.30;;;14.40;99.90;;;;;;5079007;28;20023;-74
2022/10/30 08:27:56;;;;;;;2.35;0.43;;;14.40;99.90;;;;;;5079143;28;20060;-77
2022/10/30 08:30:23;;;;;;;2.97;0.60;;;14.40;99.90;;;;;;5074291;28;20050;-77
2022/10/30 08:32:49;;;;;;;0.60;0.30;;;14.40;99.90;;;;;;5078628;28;20017;-74
2022/10/30 08:35:15;;;;;;;1.63;0.50;;;14.40;99.90;;;;;;5077363;28;20029;-77
2022/10/30 08:37:41;;;;;;;2.40;0.40;;;14.40;99.90;;;;;;5078804;28;20024;-77
2022/10/30 08:40:08;;;;;;;1.95;0.50;;;14.50;99.90;;;;;;5077289;28;20362;-77
2022/10/30 08:42:34;;;;;;;1.30;0.30;;;14.50;99.90;;;;;;5078037;28;20020;-77
2022/10/30 08:45:00;;;;;;;2.72;0.57;;;14.50;99.90;;;;;;5078401;28;20078;-74
2022/10/30 08:47:25;;;;;;;2.40;0.50;;;14.50;99.90;;;;;;5078391;28;20493;-75
2022/10/30 08:49:51;;;;;;;2.47;0.40;;;14.50;99.90;;;;;;5078315;28;20043;-77
2022/10/30 08:52:17;;;;;;;2.60;0.60;;;14.50;99.90;;;;;;5078366;28;20024;-77
2022/10/30 08:54:42;;;;;;;2.03;0.40;;;14.50;99.90;;;;;;5078188;28;20032;-77
2022/10/30 08:57:08;;;;;;;1.70;0.45;;;14.50;99.90;;;;;;5077860;28;20031;-78
2022/10/30 08:59:33;;;;;;;1.77;0.50;;;14.50;99.90;;;;;;5078209;28;20032;-75
2022/10/30 09:01:59;;;;;;;2.30;0.45;;;14.50;99.90;;;;;;5078309;28;20052;-75
2022/10/30 09:04:25;;;;;;;1.80;0.43;;;14.50;99.90;;;;;;5083423;28;20025;-76
2022/10/30 09:06:50;;;;;;;1.30;0.50;;;14.60;99.90;;;;;;5077027;28;20024;-77
2022/10/30 09:09:16;;;;;;;1.60;0.45;;;14.60;99.90;;;;;;5077558;28;20055;-77
2022/10/30 09:11:42;;;;;;;2.65;0.40;;;14.60;99.90;;;;;;5077605;28;20024;-78
2022/10/30 09:14:07;;;;;;;3.00;0.45;;;14.50;99.90;;;;;;5081603;28;20045;-78
2022/10/30 09:16:33;;;;;;;1.65;0.40;;;14.60;99.90;;;;;;5080173;28;20051;-78
2022/10/30 09:18:58;;;;;;;1.95;0.38;;;14.60;99.90;;;;;;5070032;28;20028;-78
2022/10/30 09:21:24;;;;;;;1.38;0.47;;;14.60;99.90;;;;;;5068013;28;20032;-78
2022/10/30 09:23:50;;;;;;;4.18;0.60;;;14.60;99.90;;;;;;5076834;28;20024;-77
2022/10/30 09:26:15;;;;;;;1.23;0.50;;;14.60;99.90;;;;;;5072530;28;20569;-78
2022/10/30 09:28:41;;;;;;;1.10;0.40;;;14.70;99.90;;;;;;5073435;28;20032;-78
2022/10/30 09:31:06;;;;;;;2.50;0.50;;;14.70;99.90;;;;;;5077666;28;20033;-78
2022/10/30 09:33:32;;;;;;;1.77;0.40;;;14.70;99.90;;;;;;5075716;28;20048;-78
2022/10/30 09:35:58;;;;;;;5.60;1.10;;;14.80;99.90;;;;;;5075442;28;20036;-78
2022/10/30 09:38:23;;;;;;;4.03;1.40;;;14.80;99.90;;;;;;5077044;28;20066;-78
2022/10/30 09:41:04;;;;;;;2.00;1.05;;;14.80;99.90;;;;;;5076848;28;20078;-78
2022/10/30 09:44:00;;;;;;;3.53;0.90;;;14.80;99.90;;;;;;5075941;28;20042;-78
2022/10/30 09:47:01;;;;;;;2.15;1.00;;;14.90;99.90;;;;;;5074196;28;20020;-78
2022/10/30 09:50:16;;;;;;;3.42;1.50;;;15.00;99.90;;;;;;5075322;28;20038;-78
2022/10/30 09:52:46;;;;;;;3.08;0.80;;;14.90;99.90;;;;;;5050364;28;20481;-79
2022/10/30 09:55:17;;;;;;;2.38;0.88;;;14.90;99.90;;;;;;5077060;28;20399;-78
2022/10/30 09:58:01;;;;;;;3.53;1.25;;;15.00;99.90;;;;;;5076148;28;20035;-79
2022/10/30 10:00:39;;;;;;;3.55;1.90;;;15.00;99.90;;;;;;5077240;28;20099;-78
2022/10/30 10:03:11;;;;;;;4.38;2.05;;;15.00;99.90;;;;;;5076980;28;20013;-78
2022/10/30 10:05:42;;;;;;;3.43;1.87;;;15.10;99.90;;;;;;5077407;28;20021;-78
2022/10/30 10:08:17;;;;;;;5.60;2.75;;;15.10;99.90;;;;;;5077311;28;20319;-78
2022/10/30 10:10:48;;;;;;;4.85;2.00;;;15.10;99.90;;;;;;5077035;28;20021;-78
2022/10/30 10:13:42;;;;;;;5.43;2.38;;;15.10;99.90;;;;;;5077276;28;20023;-78
2022/10/30 10:16:19;;;;;;;2.53;1.30;;;15.10;99.90;;;;;;5086577;28;20045;-78
2022/10/30 10:18:48;;;;;;;2.53;1.13;;;15.10;99.90;;;;;;5071011;28;20032;-78
2022/10/30 10:21:24;;;;;;;1.55;1.10;;;15.20;99.90;;;;;;5072177;28;20032;-78
2022/10/30 10:23:53;;;;;;;4.68;2.53;;;15.20;99.90;;;;;;5070736;28;20027;-78
2022/10/30 10:26:29;;;;;;;1.70;1.10;;;15.20;99.90;;;;;;5076287;28;20085;-78
2022/10/30 10:29:22;;;;;;;1.67;0.70;;;15.20;99.90;;;;;;5076272;28;20040;-78
2022/10/30 10:32:00;;;;;;;2.07;0.60;;;15.20;99.90;;;;;;5076183;28;20024;-78
2022/10/30 10:34:34;;;;;;;1.65;0.60;;;15.20;99.90;;;;;;5075551;28;20066;-78
2022/10/30 10:37:41;;;;;;;1.17;0.50;;;15.30;99.90;;;;;;5084956;28;20031;-78
2022/10/30 10:40:46;;;;;;;1.95;0.50;;;15.30;99.90;;;;;;5084065;28;20025;-78
2022/10/30 10:43:33;;;;;;;0.50;0.38;;;15.40;99.90;;;;;;5056978;28;20464;-79
2022/10/30 10:46:17;;;;;;;1.73;0.50;;;15.40;99.90;;;;;;5080768;28;20020;-76
2022/10/30 10:49:09;;;;;;;1.02;0.50;;;15.50;99.90;;;;;;5082328;28;20025;-77
2022/10/30 10:51:41;;;;;;;1.55;0.40;;;15.60;99.90;;;;;;5080326;28;20038;-79
2022/10/30 10:54:22;;;;;;;0.85;0.40;;;15.60;99.90;;;;;;5080208;28;20531;-78
2022/10/30 10:56:50;;;;;;;1.85;0.57;;;15.60;99.90;;;;;;5079514;28;20028;-79
2022/10/30 10:59:24;;;;;;;1.67;0.50;;;15.70;99.90;;;;;;5080480;28;20013;-76
2022/10/30 11:02:28;;;;;;;1.25;0.60;;;15.70;99.90;;;;;;5079348;28;20473;-76
2022/10/30 11:05:12;;;;;;;1.55;0.70;;;15.70;99.90;;;;;;5078864;28;20083;-76
2022/10/30 11:07:49;;;;;;;2.63;0.70;;;15.70;99.90;;;;;;5079894;28;20071;-76
2022/10/30 11:10:18;;;;;;;1.00;0.60;;;15.80;99.90;;;;;;5079290;28;20104;-77
2022/10/30 11:12:44;;;;;;;1.38;0.90;;;15.80;99.90;;;;;;5078470;28;20052;-77
2022/10/30 11:15:31;;;;;;;3.10;0.60;;;15.90;99.90;;;;;;5081773;28;20025;-77
2022/10/30 11:17:59;;;;;;;1.77;0.50;;;15.90;99.90;;;;;;5067793;28;20032;-77
2022/10/30 11:20:51;;;;;;;1.58;0.52;;;16.00;99.90;;;;;;5088095;28;20374;-77
2022/10/30 11:23:34;;;;;;;1.77;0.65;;;16.00;99.90;;;;;;5079905;28;20025;-77
2022/10/30 11:26:01;;;;;;;1.52;0.50;;;16.00;99.90;;;;;;5067881;28;20103;-77
2022/10/30 11:28:32;;;;;;;2.05;0.55;;;16.00;99.90;;;;;;5079466;28;20531;-77
2022/10/30 11:31:18;;;;;;;1.30;0.50;;;16.10;99.90;;;;;;5079583;28;20025;-77
2022/10/30 11:33:46;;;;;;;1.48;0.50;;;16.10;99.90;;;;;;5079676;28;20020;-76
2022/10/30 11:36:15;;;;;;;2.30;0.50;;;16.10;99.90;;;;;;5078601;28;20035;-77
2022/10/30 11:38:41;;;;;;;1.63;0.50;;;16.10;99.90;;;;;;5079384;28;20016;-77
2022/10/30 11:41:09;;;;;;;2.38;0.40;;;16.10;99.90;;;;;;5079950;28;20031;-77
2022/10/30 11:43:37;;;;;;;1.55;0.65;;;16.10;99.90;;;;;;5078808;28;20074;-77
2022/10/30 11:46:08;;;;;;;2.67;0.60;;;16.10;99.90;;;;;;5079826;28;20483;-77
2022/10/30 11:48:38;;;;;;;0.80;0.40;;;16.10;99.90;;;;;;5078369;28;20040;-77
2022/10/30 11:51:07;;;;;;;1.40;0.47;;;16.10;99.90;;;;;;5079344;28;20024;-77
2022/10/30 11:53:46;;;;;;;1.80;0.50;;;16.10;99.90;;;;;;5078424;28;20097;-77
2022/10/30 11:56:14;;;;;;;2.50;0.75;;;16.10;99.90;;;;;;5077402;28;20025;-77
2022/10/30 11:58:45;;;;;;;2.33;0.60;;;16.10;99.90;;;;;;5078909;28;20021;-77
2022/10/30 12:01:30;;;;;;;1.48;0.60;;;16.10;99.90;;;;;;5077977;28;20028;-77
2022/10/30 12:04:11;;;;;;;4.07;0.63;;;16.20;99.90;;;;;;5079039;28;20387;-77
2022/10/30 12:06:36;;;;;;;1.58;0.68;;;16.20;99.90;;;;;;5079393;28;20448;-77
2022/10/30 12:09:22;;;;;;;3.17;0.47;;;16.20;99.90;;;;;;5077913;28;20024;-77
2022/10/30 12:11:48;;;;;;;2.42;0.60;;;16.30;99.90;;;;;;5079341;28;20037;-77
2022/10/30 12:14:20;;;;;;;1.80;0.77;;;16.30;99.90;;;;;;5081849;28;20020;-77
2022/10/30 12:16:51;;;;;;;8.80;3.58;;;16.40;99.90;;;;;;5087084;28;20048;-77
2022/10/30 12:19:20;;;;;;;3.10;1.40;;;16.40;99.90;;;;;;5081305;28;20089;-77
2022/10/30 12:21:52;;;;;;;2.33;0.95;;;16.50;99.90;;;;;;5072190;28;20543;-77
2022/10/30 12:24:37;;;;;;;9.90;4.07;;;16.60;99.90;;;;;;5073584;28;20031;-77
2022/10/30 12:27:10;;;;;;;2.85;1.50;;;16.60;99.90;;;;;;5077705;28;20635;-77
2022/10/30 12:29:57;;;;;;;3.88;1.50;;;16.60;99.90;;;;;;5078883;28;20088;-77
2022/10/30 12:32:27;;;;;;;3.88;1.40;;;16.60;99.90;;;;;;5076860;28;20025;-77
2022/10/30 12:35:07;;;;;;;2.53;0.95;;;16.70;99.90;;;;;;5078245;28;20518;-77
2022/10/30 12:37:39;;;;;;;2.22;0.80;;;16.60;99.90;;;;;;5075837;28;20024;-76
2022/10/30 12:40:20;;;;;;;3.33;1.13;;;16.60;99.90;;;;;;5076445;28;20038;-76
2022/10/30 12:43:08;;;;;;;4.38;0.93;;;16.60;99.90;;;;;;5074387;28;20024;-76
2022/10/30 12:45:41;;;;;;;2.83;1.27;;;16.70;99.90;;;;;;5062333;28;20533;-77
2022/10/30 12:48:13;;;;;;;3.95;1.20;;;16.80;99.90;;;;;;5068617;28;20397;-76
2022/10/30 12:51:06;;;;;;;2.53;1.20;;;16.80;99.90;;;;;;5074579;28;20024;-77
2022/10/30 12:54:00;;;;;;;3.10;0.80;;;16.70;99.90;;;;;;5076030;28;20271;-77
2022/10/30 12:56:32;;;;;;;2.63;0.95;;;16.70;99.90;;;;;;5075280;28;20024;-77
2022/10/30 12:59:27;;;;;;;2.65;1.10;;;16.80;99.90;;;;;;5077053;28;20036;-77
2022/10/30 13:02:16;;;;;;;2.53;0.68;;;16.80;99.90;;;;;;5078014;28;20389;-77